Time;durP1;ratioP1;P1;durP2;ratioP2;P2;SDS_P1;SDS_P2;PMS_P1;PMS_P2;Temp;Humidity;BMP_temperature;BMP_pressure;BME280_temperature;BME280_humidity;BME280_pressure;Samples;Min_cycle;Max_cycle;Signal;HPM_P1;HPM_P2
2023/07/09 00:01:06;;;;;;;0.00;0.00;;;;;;;;;;5119466;27;20482;-79
2023/07/09 00:03:32;;;;;;;0.00;0.00;;;;;;;;;;5119593;27;20043;-79
2023/07/09 00:05:58;;;;;;;0.00;0.00;;;;;;;;;;5119524;27;20050;-79
2023/07/09 00:08:27;;;;;;;0.00;0.00;;;;;;;;;;5118430;28;20093;-79
2023/07/09 00:10:53;;;;;;;0.00;0.00;;;;;;;;;;5114644;27;20480;-80
2023/07/09 00:13:19;;;;;;;0.00;0.00;;;;;;;;;;5098060;28;20071;-79
2023/07/09 00:15:45;;;;;;;0.00;0.00;;;;;;;;;;5097895;28;20403;-79
2023/07/09 00:18:11;;;;;;;0.00;0.00;;;;;;;;;;5095575;28;20078;-79
2023/07/09 00:20:37;;;;;;;0.00;0.00;;;;;;;;;;5094584;28;20134;-79
2023/07/09 00:23:04;;;;;;;0.00;0.00;;;;;;;;;;5095504;28;20127;-79
2023/07/09 00:25:31;;;;;;;0.00;0.00;;;;;;;;;;5094726;28;20059;-79
2023/07/09 00:27:57;;;;;;;0.00;0.00;;;;;;;;;;5095650;28;20502;-79
2023/07/09 00:30:23;;;;;;;0.00;0.00;;;;;;;;;;5095627;28;20089;-79
2023/07/09 00:32:51;;;;;;;0.00;0.00;;;;;;;;;;5115352;28;20373;-79
2023/07/09 00:35:18;;;;;;;0.00;0.00;;;;;;;;;;5114701;28;20368;-79
2023/07/09 00:37:44;;;;;;;0.00;0.00;;;;;;;;;;5114649;28;20047;-79
2023/07/09 00:40:18;;;;;;;0.00;0.00;;;;;;;;;;5116121;28;20043;-79
2023/07/09 00:42:46;;;;;;;0.00;0.00;;;;;;;;;;5114339;28;20082;-79
2023/07/09 00:45:19;;;;;;;0.00;0.00;;;;;;;;;;5115837;28;20050;-79
2023/07/09 00:47:49;;;;;;;0.00;0.00;;;;;;;;;;5093890;28;20403;-79
2023/07/09 00:50:34;;;;;;;0.20;0.00;;;;;;;;;;5095447;28;20040;-79
2023/07/09 00:53:17;;;;;;;0.00;0.00;;;;;;;;;;5093863;28;20142;-79
2023/07/09 00:55:45;;;;;;;0.00;0.00;;;;;;;;;;5077324;28;20526;-79
2023/07/09 00:58:15;;;;;;;0.00;0.00;;;;;;;;;;5094689;28;20460;-79
2023/07/09 01:00:46;;;;;;;0.00;0.00;;;;;;;;;;5094076;28;20071;-78
2023/07/09 01:03:20;;;;;;;0.00;0.00;;;;;;;;;;5076803;28;20051;-79
2023/07/09 01:05:51;;;;;;;0.00;0.00;;;;;;;;;;5094038;28;20483;-79
2023/07/09 01:08:17;;;;;;;0.00;0.00;;;;;;;;;;5093595;28;20061;-79
2023/07/09 01:10:43;;;;;;;0.00;0.00;;;;;;;;;;5093825;28;20040;-79
2023/07/09 01:13:09;;;;;;;0.00;0.00;;;;;;;;;;5094822;28;20509;-79
2023/07/09 01:15:37;;;;;;;0.00;0.00;;;;;;;;;;5095025;28;20048;-79
2023/07/09 01:18:04;;;;;;;0.00;0.00;;;;;;;;;;5094719;28;20071;-79
2023/07/09 01:20:30;;;;;;;0.00;0.00;;;;;;;;;;5093817;28;20433;-79
2023/07/09 01:22:56;;;;;;;0.00;0.00;;;;;;;;;;5094409;28;20395;-77
2023/07/09 01:25:23;;;;;;;0.00;0.00;;;;;;;;;;5093345;28;20040;-79
2023/07/09 01:27:50;;;;;;;0.00;0.00;;;;;;;;;;5093407;28;20042;-81
2023/07/09 01:30:23;;;;;;;0.00;0.00;;;;;;;;;;5094686;28;20044;-79
2023/07/09 01:32:50;;;;;;;0.00;0.00;;;;;;;;;;5093294;28;20040;-79
2023/07/09 01:35:17;;;;;;;0.20;0.10;;;;;;;;;;5094557;28;20032;-79
2023/07/09 01:37:44;;;;;;;0.00;0.00;;;;;;;;;;5094170;28;20484;-78
2023/07/09 01:40:11;;;;;;;0.00;0.00;;;;;;;;;;5094516;28;20055;-79
2023/07/09 01:42:38;;;;;;;0.00;0.00;;;;;;;;;;5093163;28;20369;-78
2023/07/09 01:45:05;;;;;;;0.00;0.00;;;;;;;;;;5094285;28;20479;-78
2023/07/09 01:47:31;;;;;;;0.00;0.00;;;;;;;;;;5094213;28;20040;-79
2023/07/09 01:49:57;;;;;;;0.00;0.00;;;;;;;;;;5094122;28;20046;-79
2023/07/09 01:52:29;;;;;;;0.00;0.00;;;;;;;;;;5092980;28;20043;-79
2023/07/09 01:54:55;;;;;;;0.00;0.00;;;;;;;;;;5093001;28;20464;-79
2023/07/09 01:57:23;;;;;;;0.00;0.00;;;;;;;;;;5094043;28;20415;-79
2023/07/09 01:59:52;;;;;;;0.00;0.00;;;;;;;;;;5093865;28;20052;-78
2023/07/09 02:02:19;;;;;;;0.00;0.00;;;;;;;;;;5092561;28;20043;-79
2023/07/09 02:04:46;;;;;;;0.00;0.00;;;;;;;;;;5092365;28;20042;-79
2023/07/09 02:07:12;;;;;;;0.28;0.00;;;;;;;;;;5092590;28;20040;-79
2023/07/09 02:09:38;;;;;;;0.00;0.00;;;;;;;;;;5092286;28;20085;-79
2023/07/09 02:12:04;;;;;;;0.00;0.00;;;;;;;;;;5093931;28;20497;-79
2023/07/09 02:14:30;;;;;;;0.00;0.00;;;;;;;;;;5093770;28;20040;-79
2023/07/09 02:16:56;;;;;;;0.00;0.00;;;;;;;;;;5093603;28;20043;-79
2023/07/09 02:19:22;;;;;;;0.00;0.00;;;;;;;;;;5093326;28;20036;-79
2023/07/09 02:21:48;;;;;;;0.00;0.00;;;;;;;;;;5093813;28;20051;-79
2023/07/09 02:24:14;;;;;;;0.00;0.00;;;;;;;;;;5092090;28;20586;-79
2023/07/09 02:26:40;;;;;;;0.00;0.00;;;;;;;;;;5093669;28;20039;-79
2023/07/09 02:29:06;;;;;;;0.00;0.00;;;;;;;;;;5092253;28;20048;-81
2023/07/09 02:31:33;;;;;;;0.00;0.00;;;;;;;;;;5092115;28;20032;-79
2023/07/09 02:34:00;;;;;;;0.00;0.00;;;;;;;;;;5092129;28;20040;-79
2023/07/09 02:36:26;;;;;;;0.00;0.00;;;;;;;;;;5093648;28;20398;-79
2023/07/09 02:38:52;;;;;;;0.00;0.00;;;;;;;;;;5092875;28;20044;-79
2023/07/09 02:41:18;;;;;;;0.00;0.00;;;;;;;;;;5093443;28;20165;-79
2023/07/09 02:43:44;;;;;;;0.75;0.35;;;;;;;;;;5093048;28;20093;-79
2023/07/09 02:46:10;;;;;;;0.00;0.00;;;;;;;;;;5093164;28;20567;-79
2023/07/09 02:48:36;;;;;;;0.00;0.00;;;;;;;;;;5093065;28;20124;-79
2023/07/09 02:51:02;;;;;;;0.00;0.00;;;;;;;;;;5093369;28;20051;-79
2023/07/09 02:53:28;;;;;;;0.00;0.00;;;;;;;;;;5093182;28;20039;-79
2023/07/09 02:55:54;;;;;;;0.00;0.00;;;;;;;;;;5093263;28;20044;-79
2023/07/09 02:58:20;;;;;;;0.00;0.00;;;;;;;;;;5092795;28;20380;-79
2023/07/09 03:00:51;;;;;;;0.00;0.00;;;;;;;;;;5091679;28;20075;-79
2023/07/09 03:03:18;;;;;;;0.00;0.00;;;;;;;;;;5092926;28;20085;-79
2023/07/09 03:05:47;;;;;;;0.00;0.00;;;;;;;;;;5092836;28;20387;-79
2023/07/09 03:08:14;;;;;;;0.00;0.00;;;;;;;;;;5093073;28;20043;-79
2023/07/09 03:10:40;;;;;;;0.00;0.00;;;;;;;;;;5091556;28;20036;-79
2023/07/09 03:13:06;;;;;;;0.00;0.00;;;;;;;;;;5091806;28;20149;-79
2023/07/09 03:15:32;;;;;;;0.00;0.00;;;;;;;;;;5091796;28;20504;-79
2023/07/09 03:17:58;;;;;;;0.00;0.00;;;;;;;;;;5092876;28;20050;-79
2023/07/09 03:20:25;;;;;;;0.00;0.00;;;;;;;;;;5091705;28;20059;-79
2023/07/09 03:22:51;;;;;;;0.00;0.00;;;;;;;;;;5092859;28;20044;-79
2023/07/09 03:25:17;;;;;;;0.00;0.00;;;;;;;;;;5092705;28;20085;-78
2023/07/09 03:27:43;;;;;;;0.00;0.00;;;;;;;;;;5092934;28;20068;-79
2023/07/09 03:30:09;;;;;;;0.20;0.00;;;;;;;;;;5091450;28;20040;-79
2023/07/09 03:32:35;;;;;;;0.00;0.00;;;;;;;;;;5093017;28;20142;-79
2023/07/09 03:35:01;;;;;;;0.00;0.00;;;;;;;;;;5091238;28;20153;-77
2023/07/09 03:37:27;;;;;;;0.00;0.00;;;;;;;;;;5092849;28;20275;-79
2023/07/09 03:39:53;;;;;;;0.00;0.00;;;;;;;;;;5092611;28;20047;-79
2023/07/09 03:42:22;;;;;;;0.00;0.00;;;;;;;;;;5092793;28;20036;-79
2023/07/09 03:44:48;;;;;;;0.00;0.00;;;;;;;;;;5091212;28;20044;-79
2023/07/09 03:47:14;;;;;;;0.00;0.00;;;;;;;;;;5091647;28;20545;-79
2023/07/09 03:49:41;;;;;;;0.00;0.00;;;;;;;;;;5091368;28;20110;-79
2023/07/09 03:52:08;;;;;;;0.00;0.00;;;;;;;;;;5093170;28;20071;-79
2023/07/09 03:54:33;;;;;;;0.00;0.00;;;;;;;;;;5095045;28;20036;-79
2023/07/09 03:56:59;;;;;;;0.00;0.00;;;;;;;;;;5096234;28;20063;-79
2023/07/09 03:59:25;;;;;;;0.00;0.00;;;;;;;;;;5096068;28;20499;-79
2023/07/09 04:01:51;;;;;;;0.00;0.00;;;;;;;;;;5096536;28;20076;-79
2023/07/09 04:04:20;;;;;;;0.00;0.00;;;;;;;;;;5095237;28;20123;-79
2023/07/09 04:06:47;;;;;;;0.20;0.13;;;;;;;;;;5096380;28;20046;-79
2023/07/09 04:09:13;;;;;;;0.00;0.00;;;;;;;;;;5095871;28;20476;-79
2023/07/09 04:11:39;;;;;;;0.00;0.00;;;;;;;;;;5094789;28;20124;-77
2023/07/09 04:14:07;;;;;;;0.00;0.00;;;;;;;;;;5095977;28;20048;-79
2023/07/09 04:16:32;;;;;;;0.00;0.00;;;;;;;;;;5094997;28;20048;-79
2023/07/09 04:18:58;;;;;;;0.00;0.00;;;;;;;;;;5094770;28;20097;-79
2023/07/09 04:21:24;;;;;;;0.10;0.00;;;;;;;;;;5095831;28;20048;-79
2023/07/09 04:23:50;;;;;;;0.00;0.00;;;;;;;;;;5095899;28;20069;-79
2023/07/09 04:26:16;;;;;;;0.00;0.00;;;;;;;;;;5094481;28;20047;-79
2023/07/09 04:28:42;;;;;;;0.00;0.00;;;;;;;;;;5078028;28;20119;-85
2023/07/09 04:31:09;;;;;;;0.00;0.00;;;;;;;;;;5094371;28;20040;-79
2023/07/09 04:33:35;;;;;;;0.00;0.00;;;;;;;;;;5094601;28;20052;-79
2023/07/09 04:36:01;;;;;;;0.00;0.00;;;;;;;;;;5095426;28;20051;-79
2023/07/09 04:38:27;;;;;;;0.00;0.00;;;;;;;;;;5095769;28;20051;-80
2023/07/09 04:40:53;;;;;;;0.00;0.00;;;;;;;;;;5094507;28;20502;-79
2023/07/09 04:43:19;;;;;;;0.00;0.00;;;;;;;;;;5095389;28;20058;-80
2023/07/09 04:45:45;;;;;;;0.00;0.00;;;;;;;;;;5095351;28;20032;-79
2023/07/09 04:48:11;;;;;;;0.00;0.00;;;;;;;;;;5095468;28;20475;-80
2023/07/09 04:50:37;;;;;;;0.00;0.00;;;;;;;;;;5095144;28;20032;-80
2023/07/09 04:53:04;;;;;;;0.00;0.00;;;;;;;;;;5094009;28;20128;-79
2023/07/09 04:55:30;;;;;;;0.00;0.00;;;;;;;;;;5093818;28;20055;-80
2023/07/09 04:57:56;;;;;;;0.10;0.00;;;;;;;;;;5093783;28;20058;-79
2023/07/09 05:00:23;;;;;;;0.00;0.00;;;;;;;;;;5095090;28;20088;-79
2023/07/09 05:02:49;;;;;;;0.00;0.00;;;;;;;;;;5093420;28;20040;-80
2023/07/09 05:05:15;;;;;;;0.00;0.00;;;;;;;;;;5094007;28;20054;-79
2023/07/09 05:07:42;;;;;;;0.10;0.00;;;;;;;;;;5095103;28;20157;-80
2023/07/09 05:10:08;;;;;;;0.00;0.00;;;;;;;;;;5094949;28;20036;-80
2023/07/09 05:12:34;;;;;;;0.00;0.00;;;;;;;;;;5095229;28;20039;-80
2023/07/09 05:15:00;;;;;;;0.00;0.00;;;;;;;;;;5093484;28;20498;-79
2023/07/09 05:17:26;;;;;;;0.00;0.00;;;;;;;;;;5093785;28;20040;-80
2023/07/09 05:19:52;;;;;;;0.00;0.00;;;;;;;;;;5094606;28;20171;-79
2023/07/09 05:22:18;;;;;;;0.00;0.00;;;;;;;;;;5108306;28;20115;-79
2023/07/09 05:24:44;;;;;;;0.08;0.00;;;;;;;;;;5114914;28;20043;-79
2023/07/09 05:27:10;;;;;;;0.00;0.00;;;;;;;;;;5115194;28;20044;-80
2023/07/09 05:29:36;;;;;;;0.00;0.00;;;;;;;;;;5113863;28;20091;-79
2023/07/09 05:32:02;;;;;;;0.00;0.00;;;;;;;;;;5096877;28;20043;-80
2023/07/09 05:34:28;;;;;;;0.00;0.00;;;;;;;;;;5113818;28;20042;-80
2023/07/09 05:36:54;;;;;;;0.00;0.00;;;;;;;;;;5114849;28;20043;-80
2023/07/09 05:39:20;;;;;;;0.00;0.00;;;;;;;;;;5113970;28;20071;-80
2023/07/09 05:41:46;;;;;;;0.00;0.00;;;;;;;;;;5113173;28;20035;-80
2023/07/09 05:44:12;;;;;;;0.00;0.00;;;;;;;;;;5114832;28;20050;-80
2023/07/09 05:46:38;;;;;;;0.00;0.00;;;;;;;;;;5114501;28;20036;-80
2023/07/09 05:49:05;;;;;;;0.00;0.00;;;;;;;;;;5114711;28;20050;-80
2023/07/09 05:51:31;;;;;;;0.00;0.00;;;;;;;;;;5114298;28;20044;-80
2023/07/09 05:53:57;;;;;;;0.00;0.00;;;;;;;;;;5113140;28;20798;-81
2023/07/09 05:56:23;;;;;;;0.00;0.00;;;;;;;;;;5112722;28;20487;-79
2023/07/09 05:58:49;;;;;;;0.00;0.00;;;;;;;;;;5113159;28;20054;-80
2023/07/09 06:01:15;;;;;;;0.00;0.00;;;;;;;;;;5113038;28;20104;-80
2023/07/09 06:03:41;;;;;;;0.00;0.00;;;;;;;;;;5114424;28;20490;-80
2023/07/09 06:06:07;;;;;;;0.00;0.00;;;;;;;;;;5114116;28;20061;-80
2023/07/09 06:08:33;;;;;;;0.00;0.00;;;;;;;;;;5114335;28;20039;-82
2023/07/09 06:11:00;;;;;;;0.00;0.00;;;;;;;;;;5112549;28;20096;-81
2023/07/09 06:13:30;;;;;;;0.05;0.00;;;;;;;;;;5109171;28;20397;-80
2023/07/09 06:15:56;;;;;;;0.00;0.00;;;;;;;;;;5096041;28;20344;-82
2023/07/09 06:18:23;;;;;;;0.00;0.00;;;;;;;;;;5095901;28;20494;-81
2023/07/09 06:20:53;;;;;;;0.00;0.00;;;;;;;;;;5093472;28;20043;-80
2023/07/09 06:23:19;;;;;;;0.00;0.00;;;;;;;;;;5105701;28;20108;-80
2023/07/09 06:25:47;;;;;;;0.00;0.00;;;;;;;;;;5113614;27;20474;-80
2023/07/09 06:28:17;;;;;;;0.00;0.00;;;;;;;;;;5112650;28;20035;-80
2023/07/09 06:30:43;;;;;;;0.00;0.00;;;;;;;;;;5113834;28;20497;-80
2023/07/09 06:33:09;;;;;;;0.00;0.00;;;;;;;;;;5113777;28;20494;-80
2023/07/09 06:35:35;;;;;;;0.00;0.00;;;;;;;;;;5112116;28;20077;-80
2023/07/09 06:38:01;;;;;;;0.00;0.00;;;;;;;;;;5113951;28;20043;-80
2023/07/09 06:40:28;;;;;;;0.00;0.00;;;;;;;;;;5095209;28;20050;-80
2023/07/09 06:42:54;;;;;;;0.00;0.00;;;;;;;;;;5111999;28;20047;-80
2023/07/09 06:45:20;;;;;;;0.00;0.00;;;;;;;;;;5112288;28;20035;-81
2023/07/09 06:47:49;;;;;;;0.00;0.00;;;;;;;;;;5112011;28;20043;-81
2023/07/09 06:50:15;;;;;;;0.00;0.00;;;;;;;;;;5113265;28;20044;-80
2023/07/09 06:52:41;;;;;;;0.00;0.00;;;;;;;;;;5113410;28;20118;-81
2023/07/09 06:55:07;;;;;;;0.00;0.00;;;;;;;;;;5112399;28;20043;-79
2023/07/09 06:57:34;;;;;;;0.00;0.00;;;;;;;;;;5096403;28;20060;-79
2023/07/09 07:00:00;;;;;;;0.20;0.00;;;;;;;;;;5093220;28;20055;-79
2023/07/09 07:02:26;;;;;;;0.00;0.00;;;;;;;;;;5092225;28;20048;-80
2023/07/09 07:04:52;;;;;;;0.00;0.00;;;;;;;;;;5094446;28;20051;-79
2023/07/09 07:07:20;;;;;;;0.00;0.00;;;;;;;;;;5093025;28;20036;-80
2023/07/09 07:09:46;;;;;;;0.00;0.00;;;;;;;;;;5110157;28;20499;-79
2023/07/09 07:12:20;;;;;;;0.00;0.00;;;;;;;;;;5101010;28;20054;-79
2023/07/09 07:14:46;;;;;;;0.00;0.00;;;;;;;;;;5111304;28;20062;-80
2023/07/09 07:17:14;;;;;;;0.00;0.00;;;;;;;;;;5105722;28;20051;-80
2023/07/09 07:19:40;;;;;;;0.10;0.10;;;;;;;;;;5092765;28;20044;-79
2023/07/09 07:22:07;;;;;;;0.00;0.00;;;;;;;;;;5091408;28;20097;-79
2023/07/09 07:24:33;;;;;;;0.00;0.00;;;;;;;;;;5091759;28;20123;-80
2023/07/09 07:26:59;;;;;;;0.00;0.00;;;;;;;;;;5094958;28;20076;-82
2023/07/09 07:29:25;;;;;;;0.00;0.00;;;;;;;;;;5095427;28;20040;-79
2023/07/09 07:31:51;;;;;;;0.00;0.00;;;;;;;;;;5096301;28;20036;-79
2023/07/09 07:34:17;;;;;;;0.00;0.00;;;;;;;;;;5096894;28;20035;-79
2023/07/09 07:36:43;;;;;;;0.00;0.00;;;;;;;;;;5095526;28;20051;-79
2023/07/09 07:39:10;;;;;;;0.00;0.00;;;;;;;;;;5096329;28;20043;-79
2023/07/09 07:41:36;;;;;;;0.00;0.00;;;;;;;;;;5095033;28;20043;-79
2023/07/09 07:44:02;;;;;;;0.00;0.00;;;;;;;;;;5095023;28;20043;-79
2023/07/09 07:46:32;;;;;;;0.00;0.00;;;;;;;;;;5096215;28;20445;-79
2023/07/09 07:48:58;;;;;;;0.00;0.00;;;;;;;;;;5095484;28;20031;-79
2023/07/09 07:51:23;;;;;;;0.00;0.00;;;;;;;;;;5096348;28;20498;-79
2023/07/09 07:53:49;;;;;;;0.00;0.00;;;;;;;;;;5096795;28;20097;-79
2023/07/09 07:56:16;;;;;;;0.00;0.00;;;;;;;;;;5096141;28;20123;-79
2023/07/09 07:58:42;;;;;;;0.00;0.00;;;;;;;;;;5095144;28;20058;-79
2023/07/09 08:01:08;;;;;;;0.00;0.00;;;;;;;;;;5096202;28;20402;-79
2023/07/09 08:03:34;;;;;;;0.00;0.00;;;;;;;;;;5096118;28;20036;-79
2023/07/09 08:06:00;;;;;;;0.00;0.00;;;;;;;;;;5096442;28;20383;-78
2023/07/09 08:08:26;;;;;;;0.00;0.00;;;;;;;;;;5095033;28;20040;-79
2023/07/09 08:10:52;;;;;;;0.00;0.00;;;;;;;;;;5094930;28;20555;-79
2023/07/09 08:13:18;;;;;;;0.00;0.00;;;;;;;;;;5094899;28;20495;-80
2023/07/09 08:15:46;;;;;;;0.00;0.00;;;;;;;;;;5095916;28;20052;-78
2023/07/09 08:18:12;;;;;;;0.00;0.00;;;;;;;;;;5095912;28;20040;-78
2023/07/09 08:20:38;;;;;;;0.00;0.00;;;;;;;;;;5096093;28;20043;-78
2023/07/09 08:23:04;;;;;;;0.00;0.00;;;;;;;;;;5095775;28;20040;-78
2023/07/09 08:25:30;;;;;;;0.00;0.00;;;;;;;;;;5096074;28;20044;-79
2023/07/09 08:27:56;;;;;;;0.00;0.00;;;;;;;;;;5094439;28;20129;-78
2023/07/09 08:30:22;;;;;;;0.00;0.00;;;;;;;;;;5094368;28;20395;-78
2023/07/09 08:32:48;;;;;;;0.00;0.00;;;;;;;;;;5095721;28;20097;-78
2023/07/09 08:35:15;;;;;;;0.00;0.00;;;;;;;;;;5094839;28;20054;-79
2023/07/09 08:37:41;;;;;;;0.00;0.00;;;;;;;;;;5093714;28;20051;-78
2023/07/09 08:40:10;;;;;;;0.00;0.00;;;;;;;;;;5095593;28;20562;-78
2023/07/09 08:42:46;;;;;;;0.00;0.00;;;;;;;;;;5094139;28;20161;-78
2023/07/09 08:45:19;;;;;;;0.00;0.00;;;;;;;;;;5094241;28;20040;-79
2023/07/09 08:47:51;;;;;;;0.00;0.00;;;;;;;;;;5095316;28;20036;-78
2023/07/09 08:50:22;;;;;;;0.00;0.00;;;;;;;;;;5094283;28;20051;-78
2023/07/09 08:52:49;;;;;;;0.00;0.00;;;;;;;;;;5095276;28;20116;-78
2023/07/09 08:55:16;;;;;;;0.00;0.00;;;;;;;;;;5095252;28;20184;-76
2023/07/09 08:57:48;;;;;;;0.00;0.00;;;;;;;;;;5093518;28;20056;-78
2023/07/09 09:00:17;;;;;;;0.00;0.00;;;;;;;;;;5095105;28;20123;-78
2023/07/09 09:02:50;;;;;;;0.00;0.00;;;;;;;;;;5094899;28;20525;-78
2023/07/09 09:05:18;;;;;;;0.00;0.00;;;;;;;;;;5094113;28;20047;-80
2023/07/09 09:07:45;;;;;;;0.00;0.00;;;;;;;;;;5094617;28;20040;-78
2023/07/09 09:10:14;;;;;;;0.00;0.00;;;;;;;;;;5094999;28;20089;-78
2023/07/09 09:12:48;;;;;;;0.00;0.00;;;;;;;;;;5094779;28;20044;-78
2023/07/09 09:15:17;;;;;;;0.00;0.00;;;;;;;;;;5094775;28;20044;-78
2023/07/09 09:17:43;;;;;;;0.00;0.00;;;;;;;;;;5093302;28;20040;-79
2023/07/09 09:20:12;;;;;;;0.00;0.00;;;;;;;;;;5094580;28;20040;-78
2023/07/09 09:22:44;;;;;;;0.00;0.00;;;;;;;;;;5093085;28;20399;-80
2023/07/09 09:25:16;;;;;;;0.00;0.00;;;;;;;;;;5093158;28;20047;-80
2023/07/09 09:27:43;;;;;;;0.00;0.00;;;;;;;;;;5092952;28;20044;-80
2023/07/09 09:30:19;;;;;;;0.00;0.00;;;;;;;;;;5076007;28;20040;-80
2023/07/09 09:32:47;;;;;;;0.00;0.00;;;;;;;;;;5093988;28;20059;-80
2023/07/09 09:35:17;;;;;;;0.00;0.00;;;;;;;;;;5094397;28;20094;-79
2023/07/09 09:37:53;;;;;;;0.00;0.00;;;;;;;;;;5094026;28;20128;-79
2023/07/09 09:40:23;;;;;;;0.00;0.00;;;;;;;;;;5092744;28;20058;-79
2023/07/09 09:42:54;;;;;;;0.00;0.00;;;;;;;;;;5092739;28;20044;-80
2023/07/09 09:45:21;;;;;;;0.00;0.00;;;;;;;;;;5094154;28;20119;-80
2023/07/09 09:47:48;;;;;;;0.00;0.00;;;;;;;;;;5092807;28;20048;-80
2023/07/09 09:50:18;;;;;;;0.00;0.00;;;;;;;;;;5093191;28;20040;-79
2023/07/09 09:52:45;;;;;;;0.00;0.00;;;;;;;;;;5092581;28;20060;-80
2023/07/09 09:55:16;;;;;;;0.00;0.00;;;;;;;;;;5094210;28;20048;-79
2023/07/09 09:57:47;;;;;;;0.00;0.00;;;;;;;;;;5093545;28;20048;-79
2023/07/09 10:00:16;;;;;;;0.00;0.00;;;;;;;;;;5093956;28;20054;-80
2023/07/09 10:02:42;;;;;;;0.00;0.00;;;;;;;;;;5092090;28;20078;-80
2023/07/09 10:05:11;;;;;;;0.00;0.00;;;;;;;;;;5093707;28;20101;-80
2023/07/09 10:07:42;;;;;;;0.00;0.00;;;;;;;;;;5092263;28;20047;-80
2023/07/09 10:10:14;;;;;;;0.00;0.00;;;;;;;;;;5092457;28;20119;-80
2023/07/09 10:12:47;;;;;;;0.00;0.00;;;;;;;;;;5093570;28;20036;-80
2023/07/09 10:15:13;;;;;;;0.00;0.00;;;;;;;;;;5093845;28;20051;-82
2023/07/09 10:17:48;;;;;;;0.00;0.00;;;;;;;;;;5092279;28;20368;-80
2023/07/09 10:20:23;;;;;;;0.00;0.00;;;;;;;;;;5093490;28;20048;-80
2023/07/09 10:22:59;;;;;;;0.00;0.00;;;;;;;;;;5075090;28;20046;-80
2023/07/09 10:25:27;;;;;;;0.00;0.00;;;;;;;;;;5093394;28;20040;-81
2023/07/09 10:27:59;;;;;;;0.00;0.00;;;;;;;;;;5093322;28;20082;-80
2023/07/09 10:30:35;;;;;;;0.00;0.00;;;;;;;;;;5093607;28;20063;-81
2023/07/09 10:33:08;;;;;;;0.00;0.00;;;;;;;;;;5093415;28;20497;-81
2023/07/09 10:35:51;;;;;;;0.00;0.00;;;;;;;;;;5093513;28;20039;-81
2023/07/09 10:38:17;;;;;;;0.20;0.10;;;;;;;;;;5093289;28;20050;-81
2023/07/09 10:40:51;;;;;;;0.00;0.00;;;;;;;;;;5093506;28;20051;-80
2023/07/09 10:43:21;;;;;;;0.00;0.00;;;;;;;;;;5091708;28;20040;-80
2023/07/09 10:45:48;;;;;;;0.00;0.00;;;;;;;;;;5093479;28;20662;-81
2023/07/09 10:48:19;;;;;;;0.00;0.00;;;;;;;;;;5092971;28;20040;-81
2023/07/09 10:50:49;;;;;;;0.00;0.00;;;;;;;;;;5092102;28;20048;-80
2023/07/09 10:53:23;;;;;;;0.00;0.00;;;;;;;;;;5093155;28;20048;-81
2023/07/09 10:55:58;;;;;;;0.00;0.00;;;;;;;;;;5091900;28;20108;-80
2023/07/09 10:58:33;;;;;;;0.00;0.00;;;;;;;;;;5091521;28;20071;-80
2023/07/09 11:01:00;;;;;;;0.00;0.00;;;;;;;;;;5091653;28;20044;-81
2023/07/09 11:03:45;;;;;;;0.00;0.00;;;;;;;;;;5091628;28;20170;-80
2023/07/09 11:06:17;;;;;;;0.00;0.00;;;;;;;;;;5093140;28;20032;-80
2023/07/09 11:08:44;;;;;;;0.00;0.00;;;;;;;;;;5092567;28;20111;-80
2023/07/09 11:11:29;;;;;;;0.08;0.03;;;;;;;;;;5092634;28;20032;-79
2023/07/09 11:14:00;;;;;;;0.00;0.00;;;;;;;;;;5074286;28;20086;-77
2023/07/09 11:16:36;;;;;;;0.00;0.00;;;;;;;;;;5092624;28;20456;-79
2023/07/09 11:19:06;;;;;;;0.00;0.00;;;;;;;;;;5090928;28;20083;-78
2023/07/09 11:21:32;;;;;;;0.00;0.00;;;;;;;;;;5092647;28;20048;-79
2023/07/09 11:23:59;;;;;;;0.00;0.00;;;;;;;;;;5092245;28;20040;-78
2023/07/09 11:26:25;;;;;;;0.00;0.00;;;;;;;;;;5091156;28;20399;-78
2023/07/09 11:29:15;;;;;;;0.00;0.00;;;;;;;;;;5092627;28;20044;-78
2023/07/09 11:31:44;;;;;;;0.30;0.20;;;;;;;;;;5091989;28;20043;-78
2023/07/09 11:34:10;;;;;;;0.00;0.00;;;;;;;;;;5074373;28;20055;-79
2023/07/09 11:36:46;;;;;;;0.00;0.00;;;;;;;;;;5074360;28;20039;-79
2023/07/09 11:39:42;;;;;;;0.00;0.00;;;;;;;;;;5090822;28;20044;-78
2023/07/09 11:42:28;;;;;;;0.00;0.00;;;;;;;;;;5092375;28;20040;-79
2023/07/09 11:44:59;;;;;;;0.00;0.00;;;;;;;;;;5092317;28;20044;-79
2023/07/09 11:47:31;;;;;;;0.00;0.00;;;;;;;;;;5092284;28;20075;-78
2023/07/09 11:50:00;;;;;;;0.77;0.08;;;;;;;;;;5090728;28;20479;-79
2023/07/09 11:52:29;;;;;;;0.00;0.00;;;;;;;;;;5092182;28;20387;-79
2023/07/09 11:54:55;;;;;;;0.00;0.00;;;;;;;;;;5090934;28;20103;-79
2023/07/09 11:57:21;;;;;;;0.00;0.00;;;;;;;;;;5090753;28;20124;-79
2023/07/09 11:59:47;;;;;;;0.00;0.00;;;;;;;;;;5090756;28;20055;-79
2023/07/09 12:02:19;;;;;;;0.00;0.00;;;;;;;;;;5092051;28;20044;-79
2023/07/09 12:04:48;;;;;;;0.00;0.00;;;;;;;;;;5090757;28;20040;-79
2023/07/09 12:07:16;;;;;;;0.00;0.00;;;;;;;;;;5092417;28;20397;-80
2023/07/09 12:09:49;;;;;;;0.00;0.00;;;;;;;;;;5092116;28;20071;-80
2023/07/09 12:12:19;;;;;;;0.00;0.00;;;;;;;;;;5092814;28;20044;-79
2023/07/09 12:14:45;;;;;;;0.00;0.00;;;;;;;;;;5094550;28;20079;-79
2023/07/09 12:17:11;;;;;;;0.00;0.00;;;;;;;;;;5095668;28;20120;-79
2023/07/09 12:19:39;;;;;;;0.00;0.00;;;;;;;;;;5095633;28;20032;-79
2023/07/09 12:22:06;;;;;;;0.00;0.00;;;;;;;;;;5095704;28;20399;-80
2023/07/09 12:24:37;;;;;;;0.00;0.00;;;;;;;;;;5094092;28;20040;-80
2023/07/09 12:27:17;;;;;;;0.00;0.00;;;;;;;;;;5094426;28;20119;-80
2023/07/09 12:29:43;;;;;;;0.00;0.00;;;;;;;;;;5093904;28;20392;-80
2023/07/09 12:32:12;;;;;;;0.00;0.00;;;;;;;;;;5094256;28;20036;-80
2023/07/09 12:34:38;;;;;;;0.00;0.00;;;;;;;;;;5095334;28;20391;-80
2023/07/09 12:37:04;;;;;;;0.00;0.00;;;;;;;;;;5095503;28;20097;-80
2023/07/09 12:39:32;;;;;;;0.00;0.00;;;;;;;;;;5095338;28;20067;-80
2023/07/09 12:42:00;;;;;;;0.00;0.00;;;;;;;;;;5094258;28;20044;-80
2023/07/09 12:44:27;;;;;;;0.00;0.00;;;;;;;;;;5093654;28;20044;-80
2023/07/09 12:46:54;;;;;;;0.00;0.00;;;;;;;;;;5095268;28;20047;-80
2023/07/09 12:49:25;;;;;;;0.00;0.00;;;;;;;;;;5093844;28;20058;-80
2023/07/09 12:51:51;;;;;;;0.00;0.00;;;;;;;;;;5094040;28;20040;-80
2023/07/09 12:54:19;;;;;;;0.00;0.00;;;;;;;;;;5094836;28;20552;-80
2023/07/09 12:56:46;;;;;;;0.00;0.00;;;;;;;;;;5094867;28;20056;-80
2023/07/09 12:59:35;;;;;;;0.00;0.00;;;;;;;;;;5095143;28;20427;-79
2023/07/09 13:02:03;;;;;;;0.00;0.00;;;;;;;;;;5091748;28;20052;-80
2023/07/09 13:04:35;;;;;;;0.00;0.00;;;;;;;;;;5094642;28;20040;-80
2023/07/09 13:07:02;;;;;;;0.00;0.00;;;;;;;;;;5093528;28;20047;-79
2023/07/09 13:09:28;;;;;;;0.00;0.00;;;;;;;;;;5093112;28;20104;-80
2023/07/09 13:11:58;;;;;;;0.00;0.00;;;;;;;;;;5094555;28;20115;-80
2023/07/09 13:14:24;;;;;;;0.00;0.00;;;;;;;;;;5094362;28;20577;-80
2023/07/09 13:16:50;;;;;;;0.00;0.00;;;;;;;;;;5094441;28;20077;-80
2023/07/09 13:19:17;;;;;;;0.00;0.00;;;;;;;;;;5094594;28;20422;-80
2023/07/09 13:21:43;;;;;;;0.10;0.00;;;;;;;;;;5093191;28;20043;-80
2023/07/09 13:24:32;;;;;;;0.00;0.00;;;;;;;;;;5094035;28;20050;-79
2023/07/09 13:26:59;;;;;;;0.00;0.00;;;;;;;;;;5091435;28;20050;-80
2023/07/09 13:29:25;;;;;;;0.00;0.00;;;;;;;;;;5093011;28;20051;-80
2023/07/09 13:31:53;;;;;;;0.00;0.00;;;;;;;;;;5093009;28;20035;-80
2023/07/09 13:34:33;;;;;;;0.00;0.00;;;;;;;;;;5094129;28;20046;-80
2023/07/09 13:36:59;;;;;;;0.00;0.00;;;;;;;;;;5094203;28;20043;-80
2023/07/09 13:39:25;;;;;;;0.00;0.00;;;;;;;;;;5092886;28;20093;-79
2023/07/09 13:41:55;;;;;;;0.00;0.00;;;;;;;;;;5093991;28;20043;-80
2023/07/09 13:44:25;;;;;;;0.00;0.00;;;;;;;;;;5092690;28;20127;-80
2023/07/09 13:46:51;;;;;;;0.00;0.00;;;;;;;;;;5093592;28;20491;-80
2023/07/09 13:49:19;;;;;;;0.00;0.00;;;;;;;;;;5092668;28;20372;-80
2023/07/09 13:51:50;;;;;;;0.00;0.00;;;;;;;;;;5093786;28;20046;-79
2023/07/09 13:54:21;;;;;;;0.00;0.00;;;;;;;;;;5092555;28;20043;-80
2023/07/09 13:56:47;;;;;;;0.00;0.00;;;;;;;;;;5092136;28;20482;-79
2023/07/09 13:59:24;;;;;;;0.00;0.00;;;;;;;;;;5093855;28;20083;-80
2023/07/09 14:01:51;;;;;;;0.00;0.00;;;;;;;;;;5092332;28;20513;-79
2023/07/09 14:04:18;;;;;;;0.00;0.00;;;;;;;;;;5093337;28;20479;-80
2023/07/09 14:06:46;;;;;;;0.00;0.00;;;;;;;;;;5093331;28;20044;-80
2023/07/09 14:09:12;;;;;;;0.00;0.00;;;;;;;;;;5092304;28;20044;-80
2023/07/09 14:11:41;;;;;;;0.00;0.00;;;;;;;;;;5093238;28;20405;-80
2023/07/09 14:14:18;;;;;;;0.00;0.00;;;;;;;;;;5093314;28;20097;-80
2023/07/09 14:16:44;;;;;;;0.00;0.00;;;;;;;;;;5093395;28;20376;-80
2023/07/09 14:19:13;;;;;;;0.00;0.00;;;;;;;;;;5092161;28;20050;-81
2023/07/09 14:21:40;;;;;;;0.00;0.00;;;;;;;;;;5091893;28;20050;-79
2023/07/09 14:24:25;;;;;;;0.00;0.00;;;;;;;;;;5091853;28;20131;-79
2023/07/09 14:26:52;;;;;;;0.00;0.00;;;;;;;;;;5093161;28;20073;-81
2023/07/09 14:29:18;;;;;;;0.00;0.00;;;;;;;;;;5092906;28;20471;-80
2023/07/09 14:31:45;;;;;;;0.00;0.00;;;;;;;;;;5091523;28;20574;-82
2023/07/09 14:34:17;;;;;;;0.00;0.00;;;;;;;;;;5091819;28;20119;-78
2023/07/09 14:36:43;;;;;;;0.00;0.00;;;;;;;;;;5091105;28;20068;-80
2023/07/09 14:39:10;;;;;;;0.00;0.00;;;;;;;;;;5092784;28;20538;-78
2023/07/09 14:41:36;;;;;;;0.00;0.00;;;;;;;;;;5092838;28;20089;-78
2023/07/09 14:44:03;;;;;;;0.00;0.00;;;;;;;;;;5093013;28;20057;-78
2023/07/09 14:46:29;;;;;;;0.00;0.00;;;;;;;;;;5092749;28;20040;-78
2023/07/09 14:48:55;;;;;;;0.00;0.00;;;;;;;;;;5092916;28;20036;-78